Time;durP1;ratioP1;P1;durP2;ratioP2;P2;SDS_P1;SDS_P2;PMS_P1;PMS_P2;Temp;Humidity;BMP_temperature;BMP_pressure;BME280_temperature;BME280_humidity;BME280_pressure;Samples;Min_cycle;Max_cycle;Signal;HPM_P1;HPM_P2
2021/09/13 00:02:28;;;;;;;3.05;1.40;;;;;;;23.43;42.45;101748.69;5158041;27;20027;-74
2021/09/13 00:04:54;;;;;;;4.57;1.63;;;;;;;23.52;42.33;101744.44;5157909;27;20034;-74
2021/09/13 00:07:20;;;;;;;3.83;1.05;;;;;;;23.41;42.66;101742.69;5157970;27;20027;-75
2021/09/13 00:09:45;;;;;;;3.90;1.55;;;;;;;23.50;42.31;101743.19;5157875;27;20075;-76
2021/09/13 00:12:11;;;;;;;2.97;1.02;;;;;;;23.43;42.70;101735.56;5157840;27;20027;-76
2021/09/13 00:14:37;;;;;;;3.35;1.52;;;;;;;23.54;42.34;101746.84;5157858;27;20053;-74
2021/09/13 00:17:02;;;;;;;3.50;1.42;;;;;;;23.55;42.16;101745.66;5157815;27;20098;-78
2021/09/13 00:19:28;;;;;;;2.88;1.10;;;;;;;23.58;42.36;101750.50;5157384;27;20659;-74
2021/09/13 00:21:53;;;;;;;3.53;1.23;;;;;;;23.49;42.41;101742.38;5157656;27;20027;-75
2021/09/13 00:24:19;;;;;;;3.90;1.45;;;;;;;23.60;41.86;101748.16;5157445;27;20019;-74
2021/09/13 00:26:45;;;;;;;3.90;1.30;;;;;;;23.68;42.15;101749.88;5157497;27;20464;-74
2021/09/13 00:29:10;;;;;;;3.72;1.00;;;;;;;23.66;41.95;101751.44;5157480;27;20027;-78
2021/09/13 00:31:37;;;;;;;1.90;1.00;;;;;;;23.71;41.99;101748.28;5157400;27;20042;-74
2021/09/13 00:34:03;;;;;;;2.38;1.45;;;;;;;23.73;41.57;101751.53;5157301;27;20023;-75
2021/09/13 00:36:28;;;;;;;4.63;1.83;;;;;;;23.70;41.88;101747.50;5157374;27;20023;-75
2021/09/13 00:38:54;;;;;;;3.58;1.55;;;;;;;23.73;41.62;101746.75;5157211;27;20493;-75
2021/09/13 00:41:20;;;;;;;3.15;1.23;;;;;;;23.76;41.47;101747.97;5157230;27;20441;-75
2021/09/13 00:43:47;;;;;;;4.07;1.40;;;;;;;23.71;41.86;101742.72;5157128;27;20018;-75
2021/09/13 00:46:13;;;;;;;2.65;1.27;;;;;;;23.73;41.60;101734.78;5157156;27;20023;-77
2021/09/13 00:48:38;;;;;;;3.70;1.50;;;;;;;23.49;42.37;101736.00;5156973;27;20027;-75
2021/09/13 00:51:04;;;;;;;2.75;1.48;;;;;;;23.54;42.40;101732.91;5157012;27;20034;-75
2021/09/13 00:53:31;;;;;;;2.65;1.23;;;;;;;23.54;42.17;101728.13;5156933;27;20023;-75
2021/09/13 00:55:58;;;;;;;2.95;1.27;;;;;;;23.60;41.99;101725.84;5156832;27;20159;-76
2021/09/13 00:58:26;;;;;;;3.08;1.40;;;;;;;23.69;42.14;101722.78;5156797;27;20030;-75
2021/09/13 01:00:52;;;;;;;2.10;1.20;;;;;;;23.73;41.74;101723.63;5156718;27;20035;-75
2021/09/13 01:03:18;;;;;;;3.25;1.35;;;;;;;23.72;41.95;101717.22;5156769;27;20022;-74
2021/09/13 01:05:43;;;;;;;4.13;1.30;;;;;;;23.72;41.79;101710.84;5156658;27;20035;-74
2021/09/13 01:08:09;;;;;;;3.47;1.45;;;;;;;23.72;41.82;101714.44;5156057;27;20027;-76
2021/09/13 01:10:35;;;;;;;7.57;1.40;;;;;;;23.74;41.78;101714.06;5156725;27;20027;-77
2021/09/13 01:13:01;;;;;;;6.28;1.85;;;;;;;23.75;41.73;101710.09;5156555;27;20109;-75
2021/09/13 01:15:26;;;;;;;1.85;1.02;;;;;;;23.65;42.16;101703.19;5156609;27;20400;-75
2021/09/13 01:17:52;;;;;;;4.63;1.20;;;;;;;23.71;41.85;101696.09;5156543;27;20041;-75
2021/09/13 01:20:18;;;;;;;1.77;1.25;;;;;;;23.72;41.62;101694.91;5156074;27;20054;-75
2021/09/13 01:22:46;;;;;;;3.03;1.50;;;;;;;23.61;41.85;101693.97;5156372;27;20478;-75
2021/09/13 01:25:11;;;;;;;4.38;1.20;;;;;;;23.74;41.37;101692.56;5156498;27;20050;-75
2021/09/13 01:27:37;;;;;;;2.75;1.13;;;;;;;23.71;41.75;101692.50;5156362;27;20065;-74
2021/09/13 01:30:06;;;;;;;3.38;1.52;;;;;;;23.71;41.50;101692.50;5156193;27;20033;-75
2021/09/13 01:32:32;;;;;;;4.63;1.43;;;;;;;23.76;41.70;101706.13;5156278;27;20486;-74
2021/09/13 01:34:58;;;;;;;4.68;1.45;;;;;;;23.77;41.74;101696.56;5156119;27;20026;-75
2021/09/13 01:37:24;;;;;;;2.28;1.20;;;;;;;23.71;41.69;101698.88;5156015;27;20031;-75
2021/09/13 01:39:49;;;;;;;3.70;1.55;;;;;;;23.72;41.73;101694.91;5155885;27;20358;-75
2021/09/13 01:42:15;;;;;;;3.92;1.45;;;;;;;23.68;41.78;101688.50;5155975;27;20030;-75
2021/09/13 01:44:41;;;;;;;4.43;1.75;;;;;;;23.65;41.57;101682.84;5155839;27;20026;-77
2021/09/13 01:47:07;;;;;;;3.53;1.42;;;;;;;23.67;41.46;101686.88;5155902;27;20034;-75
2021/09/13 01:49:32;;;;;;;3.47;1.45;;;;;;;23.73;41.42;101687.38;5155731;27;20030;-75
2021/09/13 01:51:58;;;;;;;4.78;1.58;;;;;;;23.72;41.48;101682.94;5155763;27;20515;-75
2021/09/13 01:54:24;;;;;;;3.30;1.17;;;;;;;23.65;41.79;101683.66;5155776;27;20026;-74
2021/09/13 01:56:49;;;;;;;6.20;1.80;;;;;;;23.68;41.59;101687.69;5155774;27;20027;-75
2021/09/13 01:59:15;;;;;;;3.92;1.45;;;;;;;23.63;41.72;101682.44;5155582;27;20033;-74
2021/09/13 02:01:41;;;;;;;1.90;1.35;;;;;;;23.59;41.75;101685.16;5155410;27;20481;-75
2021/09/13 02:04:07;;;;;;;2.88;1.20;;;;;;;23.60;41.95;101675.63;5155028;27;20030;-77
2021/09/13 02:06:32;;;;;;;2.42;1.15;;;;;;;23.65;41.73;101669.69;5155013;27;20111;-78
2021/09/13 02:08:58;;;;;;;1.25;1.08;;;;;;;23.69;41.44;101678.94;5155131;27;20101;-75
2021/09/13 02:11:24;;;;;;;4.68;1.38;;;;;;;23.72;41.57;101677.34;5154914;27;20030;-74
2021/09/13 02:13:49;;;;;;;1.90;1.17;;;;;;;23.70;41.49;101680.53;5154910;27;20023;-75
2021/09/13 02:16:15;;;;;;;4.63;1.33;;;;;;;23.70;41.63;101680.53;5154900;27;20074;-76
2021/09/13 02:18:41;;;;;;;4.03;1.33;;;;;;;23.75;41.38;101677.41;5154568;27;20461;-75
2021/09/13 02:21:06;;;;;;;2.83;1.10;;;;;;;23.71;41.56;101670.19;5154189;27;20030;-74
2021/09/13 02:23:32;;;;;;;3.47;1.17;;;;;;;23.72;41.75;101669.78;5136568;27;20612;-75
2021/09/13 02:25:58;;;;;;;4.50;1.30;;;;;;;23.71;41.48;101662.59;5155086;27;20049;-75
2021/09/13 02:28:23;;;;;;;1.92;1.13;;;;;;;23.74;41.58;101661.88;5154919;27;20025;-75
2021/09/13 02:30:49;;;;;;;4.63;1.45;;;;;;;23.77;41.54;101663.88;5154927;27;20114;-75
2021/09/13 02:33:15;;;;;;;6.93;2.25;;;;;;;23.74;41.18;101647.91;5154945;27;20030;-74
2021/09/13 02:35:40;;;;;;;3.10;1.08;;;;;;;23.79;41.32;101653.13;5149043;27;20034;-75
2021/09/13 02:38:06;;;;;;;1.85;1.10;;;;;;;23.77;41.32;101651.91;5148079;27;20031;-75
2021/09/13 02:40:31;;;;;;;2.90;1.30;;;;;;;23.79;41.09;101649.53;5154621;27;20092;-75
2021/09/13 02:42:57;;;;;;;3.63;1.30;;;;;;;23.82;40.77;101643.22;5154724;27;20472;-75
2021/09/13 02:45:23;;;;;;;6.22;1.10;;;;;;;23.79;40.93;101641.97;5154352;27;20381;-77
2021/09/13 02:47:49;;;;;;;2.63;1.17;;;;;;;23.79;40.78;101636.38;5154743;27;20083;-75
2021/09/13 02:50:14;;;;;;;2.13;1.30;;;;;;;23.82;40.76;101639.63;5154623;27;20031;-75
2021/09/13 02:52:40;;;;;;;5.63;1.58;;;;;;;23.85;40.87;101630.47;5154623;27;20098;-75
2021/09/13 02:55:07;;;;;;;4.60;1.70;;;;;;;23.90;40.78;101632.94;5154672;27;20102;-76
2021/09/13 02:57:33;;;;;;;3.67;0.85;;;;;;;23.89;41.13;101625.75;5154632;27;20090;-75
2021/09/13 02:59:58;;;;;;;4.43;1.10;;;;;;;23.90;40.89;101616.97;5154484;27;20035;-74
2021/09/13 03:02:25;;;;;;;3.58;1.20;;;;;;;23.92;41.32;101622.97;5154615;27;20430;-75
2021/09/13 03:04:50;;;;;;;3.97;1.48;;;;;;;23.93;41.09;101621.00;5154635;27;20523;-75
2021/09/13 03:07:16;;;;;;;5.55;1.30;;;;;;;23.95;41.44;101618.59;5154578;27;20035;-77
2021/09/13 03:09:42;;;;;;;2.70;1.48;;;;;;;23.94;41.62;101620.59;5154494;27;20049;-75
2021/09/13 03:12:08;;;;;;;5.03;1.35;;;;;;;23.92;41.78;101613.81;5154583;27;20019;-78
2021/09/13 03:14:34;;;;;;;2.58;1.15;;;;;;;24.01;41.66;101612.28;5154453;27;20468;-75
2021/09/13 03:17:00;;;;;;;3.53;1.27;;;;;;;24.02;41.40;101605.53;5154383;27;20031;-75
2021/09/13 03:19:26;;;;;;;2.22;1.23;;;;;;;24.06;41.43;101616.75;5154165;27;20408;-75
2021/09/13 03:21:52;;;;;;;2.50;1.27;;;;;;;24.04;41.97;101619.91;5154411;27;20027;-74
2021/09/13 03:24:18;;;;;;;5.25;1.30;;;;;;;24.06;41.62;101598.00;5154293;27;20022;-75
2021/09/13 03:26:45;;;;;;;1.40;1.30;;;;;;;24.12;41.69;101594.88;5154276;27;20487;-74
2021/09/13 03:29:11;;;;;;;3.10;1.13;;;;;;;24.07;42.15;101604.38;5154138;27;20037;-78
2021/09/13 03:31:38;;;;;;;6.45;1.83;;;;;;;24.08;41.86;101603.19;5153967;27;20034;-75
2021/09/13 03:34:04;;;;;;;3.35;1.67;;;;;;;24.05;42.39;101606.75;5154190;27;20384;-74
2021/09/13 03:36:29;;;;;;;2.42;1.30;;;;;;;24.09;42.46;101602.00;5154177;27;20027;-75
2021/09/13 03:38:56;;;;;;;3.20;1.10;;;;;;;24.06;42.13;101602.78;5154095;27;20060;-75
2021/09/13 03:41:22;;;;;;;2.70;1.10;;;;;;;24.07;42.06;101585.66;5154244;27;20022;-75
2021/09/13 03:43:48;;;;;;;2.40;1.23;;;;;;;24.13;42.08;101585.31;5154149;27;20421;-74
2021/09/13 03:46:13;;;;;;;4.07;0.98;;;;;;;24.08;42.50;101583.66;5154041;27;20110;-75
2021/09/13 03:48:39;;;;;;;2.53;1.23;;;;;;;24.09;42.63;101579.66;5135523;27;20037;-76
2021/09/13 03:51:05;;;;;;;2.65;1.20;;;;;;;24.10;42.55;101578.47;5154108;27;20052;-74
2021/09/13 03:53:30;;;;;;;2.50;1.30;;;;;;;24.15;42.58;101577.34;5154012;27;20023;-74
2021/09/13 03:55:56;;;;;;;3.88;1.73;;;;;;;24.11;42.50;101577.31;5154075;27;20643;-75
2021/09/13 03:58:22;;;;;;;6.03;1.45;;;;;;;24.13;42.90;101574.13;5153987;27;20031;-75
2021/09/13 04:00:47;;;;;;;3.70;1.30;;;;;;;24.17;42.81;101570.16;5153975;27;20487;-75
2021/09/13 04:03:17;;;;;;;3.08;1.35;;;;;;;24.10;43.16;101564.53;5153999;27;20049;-76
2021/09/13 04:05:45;;;;;;;3.75;1.35;;;;;;;24.12;43.13;101567.75;5153952;27;20019;-75
2021/09/13 04:08:18;;;;;;;4.38;1.70;;;;;;;24.19;43.30;101572.59;5153813;27;20102;-75
2021/09/13 04:13:09;;;;;;;2.58;1.30;;;;;;;24.17;43.10;101561.78;5153820;27;20500;-75
2021/09/13 04:15:35;;;;;;;2.83;0.93;;;;;;;24.18;43.49;101559.78;5153775;27;20552;-77
2021/09/13 04:18:01;;;;;;;2.60;1.42;;;;;;;24.24;43.32;101556.25;5153821;27;20030;-75
2021/09/13 04:20:26;;;;;;;3.08;1.33;;;;;;;24.21;43.40;101559.03;5153452;27;20043;-78
2021/09/13 04:22:52;;;;;;;5.32;1.40;;;;;;;24.23;43.41;101551.06;5153786;27;20059;-75
2021/09/13 04:25:18;;;;;;;5.15;1.60;;;;;;;24.22;43.70;101555.84;5153694;27;20037;-75
2021/09/13 04:27:43;;;;;;;4.32;1.75;;;;;;;24.24;43.43;101555.47;5135128;27;20437;-75
2021/09/13 04:30:09;;;;;;;3.65;1.70;;;;;;;24.26;43.49;101555.91;5153603;27;20039;-75
2021/09/13 04:32:35;;;;;;;7.38;1.83;;;;;;;24.26;43.94;101556.69;5153691;27;20038;-75
2021/09/13 04:35:01;;;;;;;3.40;1.40;;;;;;;24.26;43.67;101555.91;5153563;27;20389;-75
2021/09/13 04:37:27;;;;;;;5.32;2.30;;;;;;;24.24;44.00;101545.09;5153560;27;20033;-76
2021/09/13 04:39:53;;;;;;;5.40;2.28;;;;;;;24.26;44.07;101548.31;5153534;27;20031;-74
2021/09/13 04:42:18;;;;;;;4.55;1.98;;;;;;;24.29;43.85;101549.53;5153597;27;20027;-75
2021/09/13 04:44:44;;;;;;;3.90;2.03;;;;;;;24.30;44.21;101551.94;5157045;27;20087;-75
2021/09/13 04:47:09;;;;;;;5.95;2.13;;;;;;;24.29;43.97;101546.72;5138370;27;20424;-75
2021/09/13 04:49:35;;;;;;;3.90;1.70;;;;;;;24.31;44.19;101542.34;5157126;27;20449;-74
2021/09/13 04:52:01;;;;;;;7.38;2.05;;;;;;;24.37;44.22;101551.22;5156965;27;20030;-77
2021/09/13 04:54:27;;;;;;;5.78;1.98;;;;;;;24.44;43.74;101551.25;5157003;27;20105;-75
2021/09/13 04:56:53;;;;;;;4.65;1.88;;;;;;;24.42;44.19;101547.28;5156964;27;20026;-75
2021/09/13 04:59:18;;;;;;;5.43;1.73;;;;;;;24.43;43.77;101548.88;5156975;27;20027;-75
2021/09/13 05:01:44;;;;;;;4.93;2.20;;;;;;;24.43;43.83;101544.09;5156815;27;20022;-75
2021/09/13 05:04:10;;;;;;;5.47;2.00;;;;;;;24.48;44.09;101534.50;5156743;27;20113;-75
2021/09/13 05:06:37;;;;;;;10.45;2.35;;;;;;;24.46;44.09;101537.69;5156904;27;20062;-74
2021/09/13 05:09:03;;;;;;;4.75;2.38;;;;;;;24.46;44.01;101539.69;5138019;27;20400;-75
2021/09/13 05:11:29;;;;;;;6.22;2.03;;;;;;;24.48;44.13;101534.50;5156615;27;20503;-76
2021/09/13 05:13:54;;;;;;;7.00;2.22;;;;;;;24.50;43.93;101532.16;5156581;27;20023;-75
2021/09/13 05:16:20;;;;;;;9.07;2.60;;;;;;;24.42;44.29;101530.50;5156545;27;20050;-75
2021/09/13 05:18:46;;;;;;;7.00;2.75;;;;;;;24.45;44.17;101530.53;5156431;27;20051;-74
2021/09/13 05:21:13;;;;;;;7.20;2.90;;;;;;;24.46;44.02;101523.75;5156534;27;20027;-74
2021/09/13 05:23:39;;;;;;;8.43;2.78;;;;;;;24.55;43.87;101526.19;5156550;27;20476;-75
2021/09/13 05:26:05;;;;;;;9.15;4.68;;;;;;;24.44;44.69;101530.91;5156415;27;20079;-74
2021/09/13 05:28:30;;;;;;;9.73;3.03;;;;;;;24.51;44.55;101525.38;5156436;27;20030;-75
2021/09/13 05:30:56;;;;;;;3.03;2.25;;;;;;;24.50;44.19;101532.16;5156458;27;20027;-75
2021/09/13 05:33:22;;;;;;;5.30;2.25;;;;;;;24.50;44.24;101529.38;5156319;27;20023;-75
2021/09/13 05:35:47;;;;;;;8.40;2.15;;;;;;;24.45;44.45;101533.31;5156285;27;20058;-78
2021/09/13 05:38:13;;;;;;;4.60;2.47;;;;;;;24.51;44.31;101522.59;5156291;27;20387;-76
2021/09/13 05:40:40;;;;;;;11.27;2.90;;;;;;;24.55;44.05;101528.97;5155979;27;20101;-75
2021/09/13 05:43:07;;;;;;;8.07;2.47;;;;;;;24.53;44.33;101525.78;5156107;27;20029;-75
2021/09/13 05:45:34;;;;;;;6.35;2.40;;;;;;;24.56;44.23;101525.81;5156019;27;20023;-73
2021/09/13 05:48:00;;;;;;;7.00;3.10;;;;;;;24.53;44.56;101520.19;5156001;27;20079;-74
2021/09/13 05:50:26;;;;;;;6.22;2.47;;;;;;;24.48;44.38;101521.34;5155751;27;20473;-74
2021/09/13 05:52:51;;;;;;;6.90;2.55;;;;;;;24.51;44.61;101517.00;5155938;27;20023;-74
2021/09/13 05:55:17;;;;;;;4.03;2.30;;;;;;;24.48;44.62;101518.56;5155802;27;20027;-74
2021/09/13 05:57:43;;;;;;;4.43;2.28;;;;;;;24.48;44.71;101521.34;5155798;27;20105;-73
2021/09/13 06:00:09;;;;;;;6.05;2.33;;;;;;;24.49;44.78;101513.78;5155691;27;20087;-74
2021/09/13 06:02:34;;;;;;;15.57;6.35;;;;;;;24.47;44.86;101525.34;5155793;27;20510;-74
2021/09/13 06:05:00;;;;;;;6.53;2.75;;;;;;;24.48;44.51;101512.97;5155639;27;20063;-75
2021/09/13 06:07:26;;;;;;;6.78;2.90;;;;;;;24.44;44.87;101516.94;5155598;27;20102;-74
2021/09/13 06:09:51;;;;;;;6.97;3.42;;;;;;;24.43;44.78;101521.72;5155525;27;20026;-74
2021/09/13 06:12:17;;;;;;;10.00;2.60;;;;;;;24.43;44.85;101515.34;5155568;27;20023;-76
2021/09/13 06:14:43;;;;;;;8.82;3.60;;;;;;;24.45;45.19;101519.34;5155432;27;20023;-74
2021/09/13 06:17:10;;;;;;;12.70;3.90;;;;;;;24.48;45.04;101512.97;5155407;27;20030;-75
2021/09/13 06:19:35;;;;;;;10.75;4.30;;;;;;;24.53;44.83;101514.59;5136472;27;20038;-75
2021/09/13 06:22:02;;;;;;;26.08;6.35;;;;;;;24.55;44.53;101515.81;5155243;27;20030;-77
2021/09/13 06:24:28;;;;;;;12.10;4.03;;;;;;;24.53;45.06;101518.19;5136638;27;20015;-74
2021/09/13 06:26:53;;;;;;;10.02;3.17;;;;;;;24.58;44.73;101522.63;5155195;27;20045;-74
2021/09/13 06:29:19;;;;;;;8.90;3.47;;;;;;;24.59;44.98;101521.44;5154887;27;20052;-74
2021/09/13 06:31:45;;;;;;;11.15;3.63;;;;;;;24.54;45.13;101524.59;5155156;27;20049;-78
2021/09/13 06:34:15;;;;;;;9.63;3.47;;;;;;;24.58;44.79;101519.84;5154514;27;20175;-74
2021/09/13 06:36:42;;;;;;;14.18;3.95;;;;;;;24.40;45.41;101513.31;5155104;27;20418;-73
2021/09/13 06:39:07;;;;;;;11.48;4.32;;;;;;;24.54;45.32;101525.38;5154854;27;20062;-74
2021/09/13 06:41:33;;;;;;;14.23;4.38;;;;;;;24.57;45.08;101529.41;5154884;27;20015;-73
2021/09/13 06:43:59;;;;;;;7.95;3.75;;;;;;;24.57;45.67;101524.63;5154797;27;20022;-71
2021/09/13 06:46:33;;;;;;;7.60;4.18;;;;;;;24.65;45.55;101531.06;5154888;27;20018;-73
2021/09/13 06:48:59;;;;;;;5.63;3.65;;;;;;;24.65;45.75;101519.88;5154888;27;20026;-74
2021/09/13 06:51:25;;;;;;;8.25;4.30;;;;;;;24.64;45.87;101512.69;5136218;27;20037;-74
2021/09/13 06:53:50;;;;;;;13.02;4.32;;;;;;;24.70;45.68;101530.66;5154799;27;20102;-74
2021/09/13 06:56:16;;;;;;;9.02;4.35;;;;;;;24.76;45.78;101533.91;5154736;27;20018;-75
2021/09/13 06:58:42;;;;;;;16.13;4.82;;;;;;;24.75;45.91;101529.50;5154572;27;20110;-74
2021/09/13 07:01:07;;;;;;;21.17;5.03;;;;;;;24.70;46.42;101522.28;5154635;27;20480;-74
2021/09/13 07:03:34;;;;;;;7.18;3.22;;;;;;;24.81;45.85;101523.16;5154551;27;20027;-74
2021/09/13 07:06:00;;;;;;;4.85;2.75;;;;;;;24.84;45.90;101521.56;5154035;27;20033;-74
2021/09/13 07:08:26;;;;;;;5.43;3.15;;;;;;;24.93;45.96;101524.78;5154606;27;20027;-74
2021/09/13 07:10:54;;;;;;;6.07;3.50;;;;;;;25.00;45.69;101529.63;5154234;27;20486;-75
2021/09/13 07:13:19;;;;;;;4.68;3.55;;;;;;;25.09;45.77;101536.50;5162929;27;20015;-75
2021/09/13 07:15:45;;;;;;;7.90;3.90;;;;;;;24.97;46.33;101536.00;5172750;27;20026;-75
2021/09/13 07:18:12;;;;;;;10.15;3.65;;;;;;;25.02;46.00;101538.44;5175072;27;20034;-75
2021/09/13 07:20:38;;;;;;;7.70;3.28;;;;;;;24.98;46.58;101534.81;5174993;27;20408;-73
2021/09/13 07:23:04;;;;;;;6.57;2.85;;;;;;;24.99;46.28;101544.78;5174990;27;20022;-75
2021/09/13 07:25:30;;;;;;;5.63;2.60;;;;;;;25.00;46.37;101547.19;5174552;27;20030;-75
2021/09/13 07:27:55;;;;;;;8.55;2.83;;;;;;;24.97;46.49;101541.59;5172369;27;20037;-75
2021/09/13 07:30:21;;;;;;;8.05;2.55;;;;;;;25.14;46.33;101535.28;5157405;27;20038;-75
2021/09/13 07:32:48;;;;;;;5.18;2.28;;;;;;;25.11;45.91;101533.31;5118885;27;20027;-74
2021/09/13 07:35:14;;;;;;;22.33;4.93;;;;;;;25.22;45.70;101531.34;5128853;27;20030;-75
2021/09/13 07:37:40;;;;;;;4.28;2.47;;;;;;;25.16;46.16;101538.50;5129063;27;20031;-75
2021/09/13 07:40:07;;;;;;;3.15;1.90;;;;;;;25.08;45.96;101539.66;5122336;27;20046;-75
2021/09/13 07:42:33;;;;;;;1.85;1.65;;;;;;;25.15;46.03;101528.50;5141808;27;20420;-75
2021/09/13 07:44:59;;;;;;;5.70;2.30;;;;;;;25.12;46.17;101529.31;5135827;27;20037;-75
2021/09/13 07:47:25;;;;;;;4.95;2.67;;;;;;;25.25;45.88;101513.78;5130786;27;20027;-75
2021/09/13 07:49:51;;;;;;;11.52;4.05;;;;;;;25.30;45.77;101518.16;5122896;27;20465;-75
2021/09/13 07:52:17;;;;;;;2.85;2.03;;;;;;;25.24;45.73;101514.97;5124870;27;20075;-74
2021/09/13 07:54:42;;;;;;;4.13;2.03;;;;;;;25.33;45.64;101518.19;5124936;27;20365;-75
2021/09/13 07:57:08;;;;;;;3.03;1.95;;;;;;;25.28;46.05;101512.97;5137950;27;20030;-75
2021/09/13 07:59:34;;;;;;;3.35;1.92;;;;;;;25.38;45.82;101506.59;5133225;27;20449;-75
2021/09/13 08:01:59;;;;;;;7.68;2.55;;;;;;;25.51;45.67;101504.25;5141757;27;20050;-74
2021/09/13 08:04:25;;;;;;;8.63;3.88;;;;;;;25.48;45.71;101507.03;5153938;27;20464;-75
2021/09/13 08:06:51;;;;;;;3.45;2.63;;;;;;;25.57;45.90;101501.84;5153929;27;20031;-75
2021/09/13 08:09:16;;;;;;;5.72;2.90;;;;;;;25.53;45.65;101512.22;5153911;27;20027;-75
2021/09/13 08:11:42;;;;;;;14.57;4.30;;;;;;;25.61;45.74;101499.84;5151323;27;20089;-75
2021/09/13 08:14:08;;;;;;;3.95;2.63;;;;;;;25.34;46.26;101499.41;5153798;27;20469;-74
2021/09/13 08:16:33;;;;;;;4.50;2.72;;;;;;;25.41;46.22;101494.63;5153247;27;20031;-74
2021/09/13 08:19:00;;;;;;;5.55;3.33;;;;;;;25.49;45.95;101498.25;5155548;27;20051;-74
2021/09/13 08:21:27;;;;;;;9.90;3.30;;;;;;;25.38;46.28;101498.22;5157498;27;20026;-74
2021/09/13 08:23:53;;;;;;;8.50;3.35;;;;;;;25.45;46.35;101501.03;5157455;27;20548;-75
2021/09/13 08:26:19;;;;;;;6.90;3.45;;;;;;;25.58;46.51;101503.44;5157496;27;20027;-74
2021/09/13 08:28:44;;;;;;;8.25;4.15;;;;;;;25.69;46.34;101504.25;5157422;27;20090;-74
2021/09/13 08:31:11;;;;;;;4.93;2.95;;;;;;;25.78;45.96;101490.72;5167517;27;20487;-74
2021/09/13 08:33:37;;;;;;;4.28;2.88;;;;;;;25.77;45.96;101499.50;5178165;27;20030;-74
2021/09/13 08:36:05;;;;;;;4.55;2.88;;;;;;;25.71;46.15;101499.06;5178103;27;20041;-74
2021/09/13 08:38:31;;;;;;;7.82;3.40;;;;;;;25.78;45.83;101493.53;5178082;27;20102;-73
2021/09/13 08:40:57;;;;;;;5.72;3.47;;;;;;;25.82;45.92;101493.50;5177868;27;20495;-74
2021/09/13 08:43:23;;;;;;;6.57;2.75;;;;;;;26.00;45.75;101502.72;5177944;27;20037;-74
2021/09/13 08:45:54;;;;;;;4.38;2.70;;;;;;;26.12;45.25;101499.50;5178100;27;20026;-73
2021/09/13 08:48:28;;;;;;;7.75;3.20;;;;;;;26.04;45.65;101505.50;5178176;27;20033;-73
2021/09/13 08:51:16;;;;;;;5.05;2.70;;;;;;;26.00;45.70;101506.31;5178068;27;20022;-73
2021/09/13 08:53:50;;;;;;;3.10;2.50;;;;;;;26.08;45.51;101507.13;5177912;27;20079;-75
2021/09/13 08:56:17;;;;;;;4.88;2.67;;;;;;;26.23;45.24;101516.31;5178177;27;20019;-75
2021/09/13 08:58:45;;;;;;;5.85;2.65;;;;;;;26.04;45.77;101511.91;5177779;27;20018;-74
2021/09/13 09:01:12;;;;;;;5.78;3.00;;;;;;;26.21;45.08;101504.69;5177497;27;20041;-73
2021/09/13 09:03:42;;;;;;;13.30;2.83;;;;;;;26.11;45.23;101502.72;5177635;27;20108;-76
2021/09/13 09:06:27;;;;;;;4.35;2.30;;;;;;;26.08;45.37;101507.13;5158745;27;20041;-74
2021/09/13 09:09:08;;;;;;;4.80;2.58;;;;;;;26.09;45.39;101508.72;5144514;27;20046;-75
2021/09/13 09:11:53;;;;;;;4.50;3.13;;;;;;;26.16;45.09;101503.09;5157044;27;20422;-74
2021/09/13 09:14:44;;;;;;;6.75;2.92;;;;;;;26.20;45.01;101509.50;5137953;27;20054;-76
2021/09/13 09:17:39;;;;;;;6.80;3.05;;;;;;;26.20;45.55;101508.69;5156712;27;20472;-74
2021/09/13 09:20:11;;;;;;;5.47;2.90;;;;;;;26.24;45.30;101503.91;5124421;27;20054;-75
2021/09/13 09:22:40;;;;;;;8.02;3.00;;;;;;;26.31;45.14;101503.09;5156553;27;20023;-73
2021/09/13 09:25:10;;;;;;;5.28;2.97;;;;;;;26.37;44.79;101502.25;5156419;27;20392;-74
2021/09/13 09:27:53;;;;;;;4.57;2.92;;;;;;;26.17;44.94;101501.09;5172383;27;20472;-72
2021/09/13 09:30:19;;;;;;;4.03;3.08;;;;;;;26.33;44.92;101492.28;5140017;27;20634;-74
2021/09/13 09:33:01;;;;;;;4.72;2.90;;;;;;;26.36;44.87;101491.47;5176883;27;20026;-73
2021/09/13 09:35:26;;;;;;;6.75;2.88;;;;;;;26.44;44.63;101491.06;5177030;27;20057;-75
2021/09/13 09:37:52;;;;;;;4.63;2.50;;;;;;;26.41;44.51;101494.69;5157996;27;20050;-73
2021/09/13 09:40:29;;;;;;;3.78;2.63;;;;;;;26.48;44.83;101491.88;5157895;27;20023;-74
2021/09/13 09:42:55;;;;;;;5.28;3.15;;;;;;;26.64;44.22;101491.41;5158346;27;20428;-74
2021/09/13 09:45:20;;;;;;;10.20;4.28;;;;;;;26.68;44.42;101494.22;5175731;27;20105;-75
2021/09/13 09:48:06;;;;;;;5.03;3.08;;;;;;;26.69;44.91;101498.63;5176956;27;20097;-74
2021/09/13 09:50:33;;;;;;;5.20;3.20;;;;;;;26.86;44.31;101491.34;5175456;27;20022;-74
2021/09/13 09:53:16;;;;;;;3.47;2.75;;;;;;;26.87;44.35;101490.94;5174866;27;20026;-74
2021/09/13 09:55:43;;;;;;;10.30;3.60;;;;;;;26.95;44.37;101488.91;5174066;27;20018;-74
2021/09/13 09:58:11;;;;;;;6.82;3.65;;;;;;;26.82;44.54;101485.75;5155989;27;20025;-74
2021/09/13 10:00:37;;;;;;;5.82;3.60;;;;;;;27.04;43.92;101489.28;5174228;27;20029;-74
2021/09/13 10:03:04;;;;;;;7.70;4.13;;;;;;;27.09;43.86;101488.88;5174613;27;20077;-75
2021/09/13 10:05:31;;;;;;;9.50;3.30;;;;;;;27.14;44.10;101496.06;5175556;27;20018;-74
2021/09/13 10:07:57;;;;;;;9.20;3.88;;;;;;;27.04;44.39;101492.88;5176456;27;20022;-75
2021/09/13 10:10:29;;;;;;;5.90;3.85;;;;;;;27.09;44.07;101486.84;5157627;27;20040;-74
2021/09/13 10:12:54;;;;;;;6.72;4.03;;;;;;;27.03;44.15;101487.66;5176346;27;20026;-74
2021/09/13 10:15:20;;;;;;;4.82;3.75;;;;;;;27.07;44.01;101489.28;5176180;27;20020;-74
2021/09/13 10:17:45;;;;;;;11.70;4.97;;;;;;;27.07;44.00;101488.50;5157557;27;20028;-74
2021/09/13 10:20:13;;;;;;;8.73;3.85;;;;;;;26.98;44.01;101485.28;5175996;27;20077;-74
2021/09/13 10:22:41;;;;;;;5.00;3.85;;;;;;;27.04;43.88;101478.88;5176077;27;20032;-74
2021/09/13 10:25:09;;;;;;;4.35;3.60;;;;;;;27.12;43.81;101484.44;5176132;27;20022;-74
2021/09/13 10:27:40;;;;;;;7.32;4.22;;;;;;;27.03;43.87;101482.84;5175951;27;20101;-75
2021/09/13 10:30:14;;;;;;;5.47;4.15;;;;;;;27.07;43.53;101477.28;5175940;27;20029;-75
2021/09/13 10:32:42;;;;;;;5.47;4.43;;;;;;;27.08;43.55;101473.25;5175988;27;20475;-75
2021/09/13 10:35:09;;;;;;;6.53;4.22;;;;;;;27.04;43.52;101467.66;5175994;27;20026;-74
2021/09/13 10:37:40;;;;;;;5.93;4.80;;;;;;;26.88;43.89;101472.09;5175808;27;20019;-74
2021/09/13 10:40:17;;;;;;;17.58;6.78;;;;;;;26.68;44.04;101471.81;5156710;27;20472;-74
2021/09/13 10:42:56;;;;;;;6.03;4.55;;;;;;;26.84;43.36;101469.34;5175725;27;20057;-74
2021/09/13 10:45:28;;;;;;;7.18;4.32;;;;;;;26.84;43.48;101463.72;5175806;27;20462;-74
2021/09/13 10:47:54;;;;;;;9.10;4.68;;;;;;;26.70;43.46;101464.59;5175957;27;20062;-74
2021/09/13 10:50:22;;;;;;;9.40;4.93;;;;;;;26.69;43.34;101465.00;5175524;27;20435;-75
2021/09/13 10:52:53;;;;;;;6.32;3.58;;;;;;;26.76;43.26;101462.16;5175570;27;20055;-74
2021/09/13 10:55:26;;;;;;;9.15;4.35;;;;;;;26.91;43.30;101457.28;5156944;27;20523;-74
2021/09/13 10:58:03;;;;;;;7.03;3.95;;;;;;;26.84;43.70;101460.94;5175763;27;20428;-74
2021/09/13 11:00:41;;;;;;;7.05;4.20;;;;;;;26.89;43.47;101451.28;5175185;27;20038;-74
2021/09/13 11:03:36;;;;;;;11.30;4.97;;;;;;;27.07;43.17;101454.81;5175519;27;20376;-74
2021/09/13 11:06:10;;;;;;;5.32;4.18;;;;;;;27.12;42.95;101445.97;5175483;27;20019;-74
2021/09/13 11:08:45;;;;;;;9.23;5.45;;;;;;;27.25;42.89;101449.91;5156566;27;20026;-74
2021/09/13 11:11:12;;;;;;;6.63;4.30;;;;;;;27.13;43.26;101443.97;5156118;27;20034;-75
2021/09/13 11:13:39;;;;;;;5.32;4.72;;;;;;;27.24;43.08;101451.13;5134634;27;20724;-75
2021/09/13 11:16:05;;;;;;;6.47;4.57;;;;;;;27.32;43.13;101449.84;5152709;27;20026;-74
2021/09/13 11:18:36;;;;;;;11.07;4.40;;;;;;;27.47;42.61;101444.16;5153919;27;20026;-75
2021/09/13 11:21:22;;;;;;;6.40;4.07;;;;;;;27.30;42.96;101449.47;5154209;27;20109;-74
2021/09/13 11:23:51;;;;;;;13.77;5.63;;;;;;;27.50;42.76;101438.50;5154463;27;20034;-74
2021/09/13 11:26:19;;;;;;;5.25;4.13;;;;;;;27.50;42.65;101438.50;5154498;27;20033;-74
2021/09/13 11:28:59;;;;;;;9.40;5.07;;;;;;;27.50;42.64;101438.50;5153986;27;20461;-73